Broken Bow, OK

7:04 AM CDT on September 02, 2015 (GMT -0500)
HADS | | Change Station
CLOSE
Current Station
Personal Weather Station
Location: Eagletown, OK
Elevation: 648 ft
Nearby Weather Stations

Elev 648 ft 34.14 °N, 94.68 °W | Updated 1 hour ago

Fog
Fog
68.0 °F
Feels Like 68.0 °F
N
2.0
Wind Variable Wind from SSE
Gusts 0.0 mph

Today
High -- | Low -- °F
--% Chance of Precip.
Yesterday
High -- | Low -- °F
Precip. -- in
6:52 AM 7:43 PM
Waning Gibbous, 81% visible
Pressure 30.06 in
Visibility 0.2 miles
Clouds
Dew Point 65.0 °F
Humidity 92%
Rainfall in
Snow Depth Not available.
UV Not available.
Pollen 10.30 out of 12
Air Quality Not available.
Flu Activity Not available.
METAR KDEQ 021153Z AUTO 00000KT 1/4SM FG VV002 18/18 A3007 RMK AO2 SLP177 T01830183 10217 20183 50006
Pressure 30.06 in
Visibility 0.2 miles
Clouds
Dew Point 65.0 °F
Humidity 92%
Rainfall in
Snow Depth Not available.
UV Not available.
Pollen 10.30 out of 12
Air Quality Not available.
Flu Activity Not available.
METAR KDEQ 021153Z AUTO 00000KT 1/4SM FG VV002 18/18 A3007 RMK AO2 SLP177 T01830183 10217 20183 50006

10-Day Weather Forecast

×

Almanac

Astronomy

Sep. 02, 2015 Rise Set
Actual Time
Civil Twilight
Nautical Twilight
Astronomical Twilight
Moon
Length of Visible Light
Length of Day
Tomorrow will be .
, % of the Moon is Illuminated

Today's Extremes

State Highs State Lows

Community

WunderPhotos

Upload Photos

1,851,736 photos uploaded!

WunderBlogs® & News

Nearby

Air Quality

  Air Quality AQ Index Pollutant
Not available.

Snow Depth

Station Depth Elevation

Earthquake Activity

City Distance Mag. Time & Date
Minimum magnitude displayed is 2.5.

Coastal Water Temperatures

Place Temperature

Stations

Nearby Weather Stations

Station Location Temp. Windchill Dew Point Humidity Wind Precip. Elev Updated Type